Time;durP1;ratioP1;P1;durP2;ratioP2;P2;SDS_P1;SDS_P2;PMS_P1;PMS_P2;Temp;Humidity;BMP_temperature;BMP_pressure;BME280_temperature;BME280_humidity;BME280_pressure;Samples;Min_cycle;Max_cycle;Signal;HPM_P1;HPM_P2
2021/01/08 00:01:39;;;;;;;63.07;27.17;;;;;;;2.56;100.00;99724.50;5118026;28;20194;-37
2021/01/08 00:04:25;;;;;;;70.23;27.77;;;;;;;2.45;100.00;99723.44;5117951;28;20592;-37
2021/01/08 00:07:12;;;;;;;62.63;26.50;;;;;;;2.48;100.00;99720.94;5118092;28;20399;-37
2021/01/08 00:09:58;;;;;;;59.57;26.20;;;;;;;2.56;100.00;99724.50;5117605;28;20201;-34
2021/01/08 00:12:44;;;;;;;72.93;27.87;;;;;;;2.34;100.00;99725.00;5118297;28;20206;-38
2021/01/08 00:15:33;;;;;;;66.90;26.67;;;;;;;2.54;100.00;99721.06;5118150;28;20206;-36
2021/01/08 00:18:19;;;;;;;80.50;28.10;;;;;;;2.53;100.00;99721.88;5118238;28;20484;-34
2021/01/08 00:21:06;;;;;;;72.13;27.33;;;;;;;2.18;100.00;99731.56;5118084;28;20233;-34
2021/01/08 00:23:54;;;;;;;84.37;32.20;;;;;;;1.81;100.00;99729.19;5118098;28;20261;-36
2021/01/08 00:26:42;;;;;;;67.07;26.50;;;;;;;2.05;100.00;99725.38;5117814;28;20211;-35
2021/01/08 00:29:30;;;;;;;67.20;26.17;;;;;;;2.02;100.00;99729.56;5117552;28;20206;-36
2021/01/08 00:32:18;;;;;;;67.70;27.23;;;;;;;2.17;100.00;99726.44;5117693;28;20487;-35
2021/01/08 00:35:05;;;;;;;75.13;27.60;;;;;;;2.11;100.00;99736.53;5117597;28;20615;-34
2021/01/08 00:37:51;;;;;;;75.20;27.20;;;;;;;2.04;100.00;99727.91;5117707;28;20201;-35
2021/01/08 00:40:38;;;;;;;72.10;26.93;;;;;;;2.04;100.00;99730.44;5117818;28;20556;-36
2021/01/08 00:43:28;;;;;;;68.03;27.13;;;;;;;2.15;100.00;99728.09;5117863;28;20773;-35
2021/01/08 00:46:14;;;;;;;70.97;29.13;;;;;;;2.01;100.00;99735.50;5117786;28;20611;-34
2021/01/08 00:49:01;;;;;;;81.40;30.33;;;;;;;2.11;100.00;99733.97;5117991;28;20666;-38
2021/01/08 00:51:48;;;;;;;81.67;30.20;;;;;;;1.95;100.00;99735.41;5117781;28;20192;-38
2021/01/08 00:54:34;;;;;;;81.53;30.37;;;;;;;2.01;100.00;99735.50;5117343;28;20600;-34
2021/01/08 00:57:20;;;;;;;82.40;31.80;;;;;;;2.08;100.00;99735.63;5117681;28;20259;-36
2021/01/08 01:00:09;;;;;;;85.20;30.70;;;;;;;2.13;100.00;99740.81;5117530;28;20260;-37
2021/01/08 01:02:55;;;;;;;76.70;29.00;;;;;;;2.29;100.00;99736.81;5117966;28;20229;-39
2021/01/08 01:05:42;;;;;;;82.93;33.70;;;;;;;2.06;100.00;99734.75;5117532;28;20200;-36
2021/01/08 01:08:30;;;;;;;78.10;30.17;;;;;;;2.17;100.00;99732.41;5117616;28;20202;-36
2021/01/08 01:11:17;;;;;;;80.07;31.10;;;;;;;1.97;100.00;99738.84;5117355;28;20281;-33
2021/01/08 01:14:03;;;;;;;90.07;31.87;;;;;;;2.03;100.00;99729.59;5117397;28;20201;-37
2021/01/08 01:16:50;;;;;;;80.83;29.83;;;;;;;2.01;100.00;99725.28;5117362;28;20194;-37
2021/01/08 01:19:37;;;;;;;77.03;29.90;;;;;;;2.04;100.00;99725.34;5117427;28;20616;-36
2021/01/08 01:22:23;;;;;;;86.43;29.93;;;;;;;2.19;100.00;99732.41;5117413;28;20226;-34
2021/01/08 01:25:10;;;;;;;72.70;28.27;;;;;;;2.26;100.00;99731.66;5117409;28;20305;-33
2021/01/08 01:27:56;;;;;;;73.87;28.93;;;;;;;2.34;100.00;99738.63;5117377;28;20296;-36
2021/01/08 01:30:42;;;;;;;69.20;28.00;;;;;;;2.30;100.00;99735.97;5117172;28;20648;-36
2021/01/08 01:33:30;;;;;;;90.73;32.10;;;;;;;2.38;100.00;99742.94;5117226;28;20200;-38
2021/01/08 01:36:17;;;;;;;65.40;27.60;;;;;;;2.46;100.00;99740.47;5117376;28;20427;-38
2021/01/08 01:39:04;;;;;;;77.00;30.07;;;;;;;2.65;100.00;99742.47;5118826;28;20199;-36
2021/01/08 01:41:50;;;;;;;86.97;31.30;;;;;;;2.49;100.00;99749.88;5121262;28;20198;-40
2021/01/08 01:44:36;;;;;;;64.00;27.13;;;;;;;2.71;100.00;99750.22;5121054;28;20194;-39
2021/01/08 01:47:23;;;;;;;69.20;27.97;;;;;;;2.67;100.00;99750.16;5121009;28;20236;-35
2021/01/08 01:50:11;;;;;;;69.80;26.80;;;;;;;2.99;100.00;99759.16;5121211;28;20246;-36
2021/01/08 01:52:57;;;;;;;73.07;27.07;;;;;;;3.04;100.00;99754.06;5120958;28;20294;-39
2021/01/08 01:55:46;;;;;;;63.00;26.47;;;;;;;2.93;100.00;99758.19;5120680;28;20206;-38
2021/01/08 01:58:32;;;;;;;69.50;28.47;;;;;;;2.91;100.00;99752.19;5120789;28;20198;-37
2021/01/08 02:01:19;;;;;;;65.17;27.43;;;;;;;2.90;100.00;99758.16;5120508;28;20497;-38
2021/01/08 02:04:07;;;;;;;65.87;25.73;;;;;;;2.86;100.00;99762.34;5120787;28;20292;-34
2021/01/08 02:06:56;;;;;;;55.87;25.07;;;;;;;2.65;100.00;99764.59;5120441;28;20481;-34
2021/01/08 02:09:43;;;;;;;67.03;26.33;;;;;;;2.83;100.00;99759.75;5120622;28;20194;-37
2021/01/08 02:12:31;;;;;;;73.57;27.07;;;;;;;2.52;100.00;99766.13;5079830;28;20349;-40
2021/01/08 02:15:18;;;;;;;67.33;27.17;;;;;;;2.57;100.00;99763.63;5079680;28;20263;-38
2021/01/08 02:18:05;;;;;;;62.23;26.17;;;;;;;2.56;100.00;99767.03;5079728;28;20192;-37
2021/01/08 02:20:53;;;;;;;63.60;25.73;;;;;;;2.94;100.00;99765.88;5079789;28;20266;-38
2021/01/08 02:23:47;;;;;;;71.17;29.03;;;;;;;2.53;100.00;99772.94;5079412;28;20281;-35
2021/01/08 02:26:35;;;;;;;59.33;26.33;;;;;;;2.85;100.00;99765.75;5079606;28;20199;-36
2021/01/08 02:29:22;;;;;;;66.00;27.70;;;;;;;2.42;100.00;99769.34;5079647;28;20210;-36
2021/01/08 02:32:09;;;;;;;67.30;28.47;;;;;;;2.52;100.00;99763.56;5079114;28;20577;-41
2021/01/08 02:34:56;;;;;;;81.43;29.07;;;;;;;2.34;100.00;99773.47;5079342;28;20334;-37
2021/01/08 02:37:43;;;;;;;62.03;24.43;;;;;;;2.58;100.00;99765.34;5078769;28;20489;-38
2021/01/08 02:40:30;;;;;;;59.50;26.27;;;;;;;2.64;100.00;99775.63;5079148;28;20200;-34
2021/01/08 02:43:21;;;;;;;65.20;27.57;;;;;;;2.59;100.00;99765.38;5078887;28;20553;-38
2021/01/08 02:46:07;;;;;;;70.77;27.33;;;;;;;2.50;100.00;99772.03;5079164;28;20292;-40
2021/01/08 02:48:54;;;;;;;79.47;28.33;;;;;;;2.49;100.00;99773.72;5079125;28;20192;-38
2021/01/08 02:51:40;;;;;;;82.20;31.43;;;;;;;2.49;100.00;99770.31;5078128;28;20343;-36
2021/01/08 02:54:26;;;;;;;74.00;28.63;;;;;;;2.84;100.00;99771.69;5079547;28;20277;-37
2021/01/08 02:57:15;;;;;;;60.90;27.33;;;;;;;2.73;100.00;99773.22;5079170;28;20257;-36
2021/01/08 03:00:02;;;;;;;75.70;30.17;;;;;;;2.48;100.00;99769.44;5078912;28;20196;-36
2021/01/08 03:02:48;;;;;;;72.40;29.20;;;;;;;2.38;100.00;99768.47;5078816;28;20329;-36
2021/01/08 03:05:35;;;;;;;74.77;28.77;;;;;;;2.45;100.00;99768.53;5078356;28;20390;-40
2021/01/08 03:08:22;;;;;;;71.63;28.70;;;;;;;2.53;100.00;99769.53;5078541;28;20248;-37
2021/01/08 03:11:09;;;;;;;54.93;25.53;;;;;;;2.76;100.00;99778.41;5097954;28;20715;-35
2021/01/08 03:13:56;;;;;;;78.13;29.70;;;;;;;2.73;100.00;99765.56;5119116;28;20482;-36
2021/01/08 03:16:44;;;;;;;77.97;28.30;;;;;;;2.61;100.00;99765.38;5119434;28;20214;-35
2021/01/08 03:19:31;;;;;;;72.73;27.83;;;;;;;2.45;100.00;99764.28;5118615;28;20197;-36
2021/01/08 03:22:18;;;;;;;69.87;26.53;;;;;;;2.80;100.00;99771.63;5118596;28;20218;-35
2021/01/08 03:25:05;;;;;;;60.57;26.30;;;;;;;2.53;100.00;99772.06;5119089;28;20522;-35
2021/01/08 03:27:52;;;;;;;59.00;25.10;;;;;;;2.64;100.00;99773.09;5118995;28;20479;-38
2021/01/08 03:30:38;;;;;;;65.57;25.93;;;;;;;2.80;100.00;99775.03;5118669;28;20209;-38
2021/01/08 03:33:26;;;;;;;69.60;27.17;;;;;;;2.84;100.00;99775.94;5118291;28;20198;-38
2021/01/08 03:36:12;;;;;;;64.77;26.47;;;;;;;2.46;100.00;99776.22;5119272;28;20206;-37
2021/01/08 03:38:58;;;;;;;54.20;21.83;;;;;;;2.50;100.00;99777.13;5118619;28;20202;-35
2021/01/08 03:41:44;;;;;;;63.20;24.23;;;;;;;2.39;100.00;99777.84;5118821;28;20283;-34
2021/01/08 03:44:31;;;;;;;56.03;22.80;;;;;;;2.82;100.00;99786.13;5118252;28;20581;-37
2021/01/08 03:47:17;;;;;;;57.43;22.97;;;;;;;2.55;100.00;99785.72;5118765;28;20199;-34
2021/01/08 03:50:05;;;;;;;58.63;25.10;;;;;;;2.55;100.00;99780.63;5118838;28;20206;-38
2021/01/08 03:52:51;;;;;;;56.57;22.47;;;;;;;2.68;100.00;99790.16;5118483;28;20202;-37
2021/01/08 03:55:37;;;;;;;64.07;23.10;;;;;;;2.47;100.00;99782.19;5118741;28;20636;-39
2021/01/08 03:58:24;;;;;;;54.97;22.87;;;;;;;2.39;100.00;99784.63;5119008;28;20213;-37
2021/01/08 04:01:10;;;;;;;61.77;24.27;;;;;;;2.55;100.00;99784.03;5118288;28;20335;-36
2021/01/08 04:03:56;;;;;;;67.10;24.60;;;;;;;2.81;100.00;99791.19;5117910;28;20226;-35
2021/01/08 04:06:43;;;;;;;63.50;25.23;;;;;;;2.63;100.00;99790.09;5118179;28;20205;-38
2021/01/08 04:09:29;;;;;;;55.77;22.33;;;;;;;2.64;100.00;99788.41;5118134;28;20352;-34
2021/01/08 04:12:15;;;;;;;58.57;23.53;;;;;;;2.66;100.00;99787.59;5117808;28;20233;-36
2021/01/08 04:15:01;;;;;;;64.77;24.33;;;;;;;2.50;100.00;99783.09;5117978;28;20233;-34
2021/01/08 04:17:47;;;;;;;65.83;23.80;;;;;;;2.40;100.00;99782.06;5118215;28;20296;-34
2021/01/08 04:20:33;;;;;;;61.63;22.97;;;;;;;2.73;100.00;99786.84;5117797;28;20255;-35
2021/01/08 04:23:21;;;;;;;65.23;24.97;;;;;;;2.64;100.00;99785.84;5117785;28;20221;-34
2021/01/08 04:26:07;;;;;;;58.80;24.60;;;;;;;2.52;100.00;99786.53;5118574;28;20301;-36
2021/01/08 04:28:53;;;;;;;60.87;23.73;;;;;;;2.44;100.00;99788.09;5118241;28;20493;-38
2021/01/08 04:31:41;;;;;;;70.63;26.53;;;;;;;2.40;100.00;99786.31;5118084;28;20257;-34
2021/01/08 04:34:31;;;;;;;56.73;24.57;;;;;;;2.54;100.00;99786.56;5118051;28;20632;-38
2021/01/08 04:37:17;;;;;;;60.63;25.20;;;;;;;2.36;100.00;99795.66;5118089;28;20203;-37
2021/01/08 04:40:05;;;;;;;65.83;25.10;;;;;;;2.23;100.00;99797.94;5118000;28;20199;-34
2021/01/08 04:42:52;;;;;;;60.13;24.30;;;;;;;2.29;100.00;99792.94;5117910;28;20265;-36
2021/01/08 04:45:39;;;;;;;63.77;25.00;;;;;;;2.22;100.00;99796.22;5117928;28;20198;-36
2021/01/08 04:48:26;;;;;;;57.23;25.00;;;;;;;2.26;100.00;99803.09;5117658;28;20199;-38
2021/01/08 04:51:13;;;;;;;60.73;24.10;;;;;;;2.20;100.00;99803.84;5117815;28;20267;-36
2021/01/08 04:54:00;;;;;;;60.40;23.73;;;;;;;2.38;100.00;99801.63;5117201;28;20194;-34
2021/01/08 04:56:53;;;;;;;53.93;23.40;;;;;;;2.32;100.00;99805.75;5117583;28;20592;-37
2021/01/08 04:59:40;;;;;;;50.17;20.80;;;;;;;2.16;100.00;99804.66;5117331;28;20340;-37
2021/01/08 05:02:27;;;;;;;46.00;19.70;;;;;;;2.27;100.00;99805.69;5117786;28;20328;-37
2021/01/08 05:05:15;;;;;;;44.37;18.90;;;;;;;2.38;100.00;99811.84;5117581;28;20253;-37
2021/01/08 05:08:01;;;;;;;36.70;17.10;;;;;;;2.48;100.00;99812.84;5117297;28;20202;-33
2021/01/08 05:10:47;;;;;;;39.10;17.20;;;;;;;2.46;100.00;99816.19;5116734;28;20426;-33
2021/01/08 05:13:36;;;;;;;36.07;14.37;;;;;;;2.02;100.00;99812.03;5118215;28;20238;-36
2021/01/08 05:16:24;;;;;;;36.73;14.93;;;;;;;2.15;100.00;99810.59;5121851;28;20194;-34
2021/01/08 05:19:10;;;;;;;33.93;14.53;;;;;;;2.34;100.00;99817.72;5121959;28;20463;-34
2021/01/08 05:21:56;;;;;;;33.37;13.60;;;;;;;2.14;100.00;99818.22;5121690;28;20201;-32
2021/01/08 05:24:42;;;;;;;33.80;13.40;;;;;;;2.24;100.00;99815.81;5120591;28;20239;-36
2021/01/08 05:27:33;;;;;;;34.43;12.93;;;;;;;2.03;100.00;99823.09;5120934;28;20221;-35
2021/01/08 05:30:23;;;;;;;33.13;13.37;;;;;;;2.02;100.00;99834.13;5120762;28;20198;-33
2021/01/08 05:33:16;;;;;;;28.80;13.20;;;;;;;2.28;100.00;99832.06;5121075;28;20485;-36
2021/01/08 05:36:03;;;;;;;30.03;12.93;;;;;;;2.12;100.00;99828.38;5121298;28;20596;-34
2021/01/08 05:38:52;;;;;;;31.13;13.00;;;;;;;2.04;100.00;99838.44;5120823;28;20291;-34
2021/01/08 05:41:38;;;;;;;24.77;12.20;;;;;;;2.14;100.00;99829.28;5121435;28;20221;-37
2021/01/08 05:44:24;;;;;;;30.10;13.07;;;;;;;1.94;100.00;99830.59;5120723;28;20218;-36
2021/01/08 05:47:11;;;;;;;27.43;12.70;;;;;;;2.24;100.00;99836.25;5120854;28;20480;-33
2021/01/08 05:49:59;;;;;;;27.63;12.43;;;;;;;1.94;100.00;99835.69;5120425;28;20202;-35
2021/01/08 05:52:47;;;;;;;26.80;12.03;;;;;;;2.36;100.00;99841.56;5120619;28;20203;-36
2021/01/08 05:55:39;;;;;;;40.90;14.13;;;;;;;2.17;100.00;99841.22;5120614;28;20584;-36
2021/01/08 05:58:25;;;;;;;31.50;12.73;;;;;;;2.12;100.00;99836.03;5120720;28;20190;-35
2021/01/08 06:01:13;;;;;;;28.90;12.00;;;;;;;2.09;100.00;99846.19;5120284;28;20471;-36
2021/01/08 06:04:01;;;;;;;28.50;12.67;;;;;;;1.90;100.00;99854.31;5109582;28;20231;-36
2021/01/08 06:06:47;;;;;;;31.47;12.87;;;;;;;2.07;100.00;99848.69;5099938;28;20199;-38
2021/01/08 06:09:36;;;;;;;31.50;13.27;;;;;;;1.99;100.00;99849.41;5100166;28;20191;-35
2021/01/08 06:12:26;;;;;;;32.77;13.70;;;;;;;1.97;100.00;99851.06;5100082;28;20593;-36
2021/01/08 06:15:16;;;;;;;31.80;13.80;;;;;;;2.06;100.00;99851.22;5100300;28;20257;-32
2021/01/08 06:18:05;;;;;;;39.87;13.80;;;;;;;1.92;100.00;99852.66;5100352;28;20203;-39
2021/01/08 06:20:54;;;;;;;34.90;13.80;;;;;;;2.02;100.00;99849.44;5100518;28;20203;-37
2021/01/08 06:23:41;;;;;;;35.63;13.07;;;;;;;2.04;100.00;99847.78;5100355;28;20370;-33
2021/01/08 06:26:31;;;;;;;36.30;14.17;;;;;;;2.04;100.00;99853.75;5098166;28;20613;-33
2021/01/08 06:29:19;;;;;;;35.73;13.30;;;;;;;2.04;100.00;99858.84;5099783;28;20191;-35
2021/01/08 06:32:13;;;;;;;40.77;15.10;;;;;;;1.78;100.00;99854.09;5099970;28;20301;-33
2021/01/08 06:35:06;;;;;;;37.20;14.93;;;;;;;1.88;100.00;99856.84;5099621;28;20335;-35
2021/01/08 06:37:59;;;;;;;40.37;14.20;;;;;;;2.12;100.00;99863.25;5099181;28;20257;-36
2021/01/08 06:40:49;;;;;;;36.03;14.27;;;;;;;2.04;100.00;99860.53;5099487;28;20265;-35
2021/01/08 06:43:37;;;;;;;42.43;17.63;;;;;;;1.95;100.00;99868.88;5099514;28;20277;-37
2021/01/08 06:46:32;;;;;;;39.07;17.30;;;;;;;2.18;100.00;99873.56;5099224;28;20671;-38
2021/01/08 06:49:20;;;;;;;44.57;20.50;;;;;;;2.15;100.00;99871.81;5099308;28;20663;-38
2021/01/08 06:52:06;;;;;;;40.63;17.90;;;;;;;1.96;100.00;99877.41;5099115;28;20195;-34
2021/01/08 06:54:54;;;;;;;37.23;16.37;;;;;;;1.97;100.00;99876.56;5099300;28;20289;-33
2021/01/08 06:57:48;;;;;;;43.83;18.07;;;;;;;1.67;100.00;99885.31;5109643;28;20265;-35
2021/01/08 07:00:34;;;;;;;49.10;17.83;;;;;;;1.79;100.00;99887.28;5119458;28;20257;-34
2021/01/08 07:03:22;;;;;;;45.90;20.23;;;;;;;1.60;100.00;99896.19;5119347;28;20722;-36
2021/01/08 07:06:08;;;;;;;43.87;19.70;;;;;;;1.86;100.00;99893.31;5119268;28;20256;-38
2021/01/08 07:08:55;;;;;;;68.20;23.70;;;;;;;1.85;100.00;99906.91;5119385;28;20194;-39
2021/01/08 07:11:42;;;;;;;56.03;22.73;;;;;;;1.67;100.00;99902.28;5118314;28;20283;-40
2021/01/08 07:14:28;;;;;;;53.03;21.57;;;;;;;1.55;100.00;99902.91;5119110;28;20199;-35
2021/01/08 07:17:15;;;;;;;59.03;21.97;;;;;;;1.58;100.00;99915.72;5118432;28;20186;-38
2021/01/08 07:20:01;;;;;;;59.40;21.47;;;;;;;1.72;100.00;99916.88;5118910;28;20255;-39
2021/01/08 07:22:52;;;;;;;55.43;21.13;;;;;;;1.83;100.00;99918.75;5118189;28;20198;-38
2021/01/08 07:25:40;;;;;;;58.90;22.63;;;;;;;1.66;100.00;99924.38;5118277;28;20256;-36
2021/01/08 07:28:30;;;;;;;55.67;20.63;;;;;;;1.65;100.00;99925.19;5118401;28;20306;-39
2021/01/08 07:31:30;;;;;;;49.23;18.77;;;;;;;1.84;100.00;99930.69;5118371;28;20194;-38
2021/01/08 07:34:16;;;;;;;48.83;18.33;;;;;;;1.75;100.00;99938.16;5118704;28;20677;-37
2021/01/08 07:37:03;;;;;;;56.17;20.27;;;;;;;1.56;100.00;99944.53;5118049;28;20264;-37
2021/01/08 07:40:04;;;;;;;47.07;18.40;;;;;;;1.70;100.00;99938.91;5118297;28;20210;-36
2021/01/08 07:43:00;;;;;;;49.90;17.77;;;;;;;1.81;100.00;99951.00;5118118;28;20260;-38
2021/01/08 07:45:50;;;;;;;45.80;17.03;;;;;;;1.61;100.00;99950.59;5118525;28;20735;-34
2021/01/08 07:48:38;;;;;;;48.73;16.87;;;;;;;1.63;100.00;99957.44;5118228;28;20198;-37
2021/01/08 07:51:45;;;;;;;51.90;17.50;;;;;;;1.58;100.00;99964.16;5117778;28;20194;-34
2021/01/08 07:54:51;;;;;;;47.83;17.33;;;;;;;1.65;100.00;99967.66;5117927;28;20252;-38
2021/01/08 07:58:04;;;;;;;39.73;15.70;;;;;;;1.94;100.00;99979.38;5117612;28;20202;-38
2021/01/08 08:01:04;;;;;;;46.23;17.70;;;;;;;1.88;100.00;99983.47;5117520;28;20199;-41
2021/01/08 08:03:59;;;;;;;54.50;19.13;;;;;;;1.68;100.00;99990.69;5117965;28;20252;-40
2021/01/08 08:06:48;;;;;;;62.10;27.10;;;;;;;1.67;100.00;99994.91;5118000;28;20210;-36
2021/01/08 08:09:34;;;;;;;48.03;25.07;;;;;;;1.75;100.00;99995.09;5117799;28;20194;-39
2021/01/08 08:12:21;;;;;;;53.17;22.30;;;;;;;1.63;100.00;99998.22;5117653;28;20250;-36
2021/01/08 08:15:08;;;;;;;57.93;21.90;;;;;;;1.63;100.00;99997.34;5117715;28;20611;-40
2021/01/08 08:17:59;;;;;;;45.60;18.43;;;;;;;1.86;100.00;100000.41;5116992;28;20217;-38
2021/01/08 08:20:49;;;;;;;47.53;17.40;;;;;;;1.67;100.00;99996.59;5117851;28;20195;-38
2021/01/08 08:23:35;;;;;;;55.63;20.50;;;;;;;1.50;100.00;100006.41;5117136;28;20275;-36
2021/01/08 08:26:22;;;;;;;45.63;18.60;;;;;;;1.77;100.00;100012.97;5116654;28;20198;-36
2021/01/08 08:29:12;;;;;;;44.70;17.50;;;;;;;1.96;100.00;100010.88;5116428;28;20604;-36
2021/01/08 08:32:00;;;;;;;42.83;17.73;;;;;;;1.97;100.00;100021.94;5117316;28;20195;-39
2021/01/08 08:34:47;;;;;;;38.57;16.07;;;;;;;2.11;100.00;100019.66;5116707;28;20191;-39
2021/01/08 08:37:33;;;;;;;38.30;15.60;;;;;;;2.32;100.00;100022.66;5117613;28;20268;-36
2021/01/08 08:40:25;;;;;;;35.63;16.17;;;;;;;2.25;100.00;100036.97;5117236;28;20244;-36
2021/01/08 08:43:20;;;;;;;37.77;17.70;;;;;;;2.08;100.00;100031.53;5116752;28;20206;-39
2021/01/08 08:46:06;;;;;;;52.53;19.33;;;;;;;2.05;100.00;100036.56;5116505;28;20202;-36
2021/01/08 08:49:21;;;;;;;39.47;18.10;;;;;;;2.11;100.00;100043.50;5116240;28;20205;-40
2021/01/08 08:52:31;;;;;;;51.53;23.53;;;;;;;2.26;100.00;100048.03;5096579;28;20224;-38
2021/01/08 08:55:28;;;;;;;45.83;20.63;;;;;;;2.17;100.00;100047.88;5114518;28;20561;-38
2021/01/08 08:58:15;;;;;;;40.03;20.47;;;;;;;2.20;100.00;100043.66;5117385;28;20202;-36
2021/01/08 09:01:01;;;;;;;42.63;20.20;;;;;;;2.19;100.00;100049.63;5116654;28;20298;-37
2021/01/08 09:03:47;;;;;;;37.40;17.77;;;;;;;2.45;100.00;100055.25;5096398;28;20222;-38
2021/01/08 09:06:43;;;;;;;41.23;17.90;;;;;;;2.12;100.00;100055.41;5096857;28;20199;-39
2021/01/08 09:09:37;;;;;;;42.27;19.43;;;;;;;2.25;100.00;100071.84;5096377;28;20640;-37
2021/01/08 09:12:37;;;;;;;36.63;17.33;;;;;;;2.54;100.00;100069.91;5096365;28;20367;-38
2021/01/08 09:15:28;;;;;;;35.83;18.77;;;;;;;2.70;100.00;100062.56;5096534;28;20601;-37
2021/01/08 09:18:29;;;;;;;32.07;15.83;;;;;;;2.53;100.00;100068.19;5097018;28;20203;-42
2021/01/08 09:21:19;;;;;;;37.27;18.03;;;;;;;2.36;100.00;100070.41;5096413;28;20195;-39
2021/01/08 09:24:10;;;;;;;27.97;15.30;;;;;;;2.77;100.00;100076.34;5095763;28;20227;-36
2021/01/08 09:27:00;;;;;;;36.67;15.23;;;;;;;2.70;100.00;100082.13;5096727;28;20293;-39
2021/01/08 09:29:46;;;;;;;29.37;14.80;;;;;;;2.70;100.00;100075.34;5111659;28;20608;-39
2021/01/08 09:32:34;;;;;;;34.57;14.87;;;;;;;2.05;100.00;100084.16;5097151;28;20199;-37
2021/01/08 09:35:20;;;;;;;31.07;14.97;;;;;;;2.47;100.00;100084.22;5107730;28;20284;-39
2021/01/08 09:38:12;;;;;;;33.30;15.37;;;;;;;2.40;100.00;100084.91;5096577;28;20261;-38
2021/01/08 09:40:58;;;;;;;30.47;15.20;;;;;;;2.86;100.00;100089.25;5096042;28;20199;-41
2021/01/08 09:43:56;;;;;;;35.40;17.13;;;;;;;3.01;100.00;100089.53;5096341;28;20227;-40
2021/01/08 09:46:56;;;;;;;32.60;16.70;;;;;;;2.58;100.00;100087.88;5096688;28;20191;-41
2021/01/08 09:49:45;;;;;;;37.57;19.57;;;;;;;2.76;100.00;100100.16;5096212;28;20207;-36
2021/01/08 09:52:32;;;;;;;36.53;18.83;;;;;;;2.52;100.00;100092.00;5096107;28;20584;-38
2021/01/08 09:55:25;;;;;;;33.77;18.37;;;;;;;2.75;100.00;100103.53;5096805;28;20204;-40
2021/01/08 09:58:15;;;;;;;29.07;16.00;;;;;;;3.01;100.00;100104.88;5096026;28;20245;-39
2021/01/08 10:01:03;;;;;;;27.40;15.83;;;;;;;2.94;100.00;100112.41;5099484;28;20257;-40
2021/01/08 10:03:50;;;;;;;30.33;16.33;;;;;;;2.81;100.00;100101.06;5099564;28;20356;-41
2021/01/08 10:06:55;;;;;;;27.27;15.07;;;;;;;3.36;100.00;100100.44;5100184;28;20485;-38
2021/01/08 10:09:47;;;;;;;27.53;14.73;;;;;;;3.58;100.00;100104.22;5099549;28;20190;-35
2021/01/08 10:12:46;;;;;;;29.70;15.43;;;;;;;3.11;100.00;100100.81;5099517;28;20195;-36
2021/01/08 10:15:37;;;;;;;21.47;12.20;;;;;;;2.98;100.00;100103.97;5100077;28;20280;-41
2021/01/08 10:18:31;;;;;;;20.73;11.57;;;;;;;3.05;100.00;100111.78;5099651;28;20198;-37
2021/01/08 10:21:22;;;;;;;21.87;12.40;;;;;;;2.82;100.00;100105.34;5098878;28;20198;-37
2021/01/08 10:24:08;;;;;;;25.33;13.27;;;;;;;2.67;100.00;100112.72;5098945;28;20343;-41
2021/01/08 10:26:55;;;;;;;23.10;13.30;;;;;;;2.35;100.00;100110.38;5098717;28;20617;-38
2021/01/08 10:29:42;;;;;;;22.50;12.57;;;;;;;2.67;100.00;100111.03;5098542;28;20199;-37
2021/01/08 10:32:28;;;;;;;23.97;13.30;;;;;;;2.93;100.00;100115.78;5098240;28;20249;-41
2021/01/08 10:35:17;;;;;;;23.30;14.07;;;;;;;3.01;100.00;100114.22;5098300;28;20207;-39
2021/01/08 10:38:05;;;;;;;21.03;12.43;;;;;;;2.79;100.00;100120.66;5098360;28;20191;-35
2021/01/08 10:40:52;;;;;;;19.97;12.13;;;;;;;2.76;100.00;100112.91;5098155;28;20619;-40
2021/01/08 10:43:37;;;;;;;21.97;12.60;;;;;;;3.10;100.00;100117.84;5098464;28;20226;-39
2021/01/08 10:46:24;;;;;;;24.40;13.50;;;;;;;3.14;100.00;100123.88;5098813;28;20215;-38
2021/01/08 10:49:11;;;;;;;23.50;12.77;;;;;;;3.06;100.00;100121.16;5098558;28;20658;-38
2021/01/08 10:51:59;;;;;;;21.47;12.70;;;;;;;3.00;100.00;100118.47;5098188;28;20190;-39
2021/01/08 10:54:47;;;;;;;20.87;11.83;;;;;;;3.18;100.00;100117.13;5098306;28;20203;-36
2021/01/08 10:57:39;;;;;;;21.40;12.07;;;;;;;3.14;100.00;100125.56;5098694;28;20261;-39
2021/01/08 11:00:25;;;;;;;18.60;12.27;;;;;;;3.55;100.00;100119.50;5097821;28;20606;-37
2021/01/08 11:03:12;;;;;;;22.77;11.57;;;;;;;3.16;100.00;100123.91;5098292;28;20195;-35
2021/01/08 11:05:58;;;;;;;21.10;11.50;;;;;;;3.42;100.00;100123.53;5098425;28;20195;-38
2021/01/08 11:08:46;;;;;;;17.23;10.40;;;;;;;3.47;100.00;100116.81;5099167;28;20211;-37
2021/01/08 11:11:32;;;;;;;18.10;11.73;;;;;;;3.43;100.00;100120.13;5097199;28;20285;-38
2021/01/08 11:14:19;;;;;;;17.60;11.47;;;;;;;3.32;100.00;100124.22;5098317;28;20187;-37
2021/01/08 11:17:05;;;;;;;17.73;11.67;;;;;;;3.49;100.00;100121.94;5098304;28;20599;-36
2021/01/08 11:19:52;;;;;;;18.17;11.63;;;;;;;3.49;100.00;100119.38;5097692;28;20542;-37
2021/01/08 11:22:38;;;;;;;18.30;12.13;;;;;;;3.44;100.00;100123.56;5097896;28;20194;-36
2021/01/08 11:25:25;;;;;;;18.70;11.03;;;;;;;3.50;100.00;100117.69;5098488;28;20691;-39
2021/01/08 11:28:12;;;;;;;20.83;12.43;;;;;;;3.17;100.00;100120.53;5097610;28;20198;-40
2021/01/08 11:30:58;;;;;;;18.40;11.67;;;;;;;3.32;100.00;100123.34;5097345;28;20550;-37
2021/01/08 11:33:45;;;;;;;18.83;12.57;;;;;;;3.69;100.00;100123.16;5097280;28;20659;-38
2021/01/08 11:36:31;;;;;;;16.37;10.63;;;;;;;3.09;100.00;100134.00;5096712;28;20671;-34
2021/01/08 11:39:18;;;;;;;16.50;10.53;;;;;;;3.05;100.00;100124.56;5097859;28;20245;-39
2021/01/08 11:42:08;;;;;;;16.33;10.17;;;;;;;3.47;100.00;100121.06;5098163;28;20186;-37
2021/01/08 11:44:55;;;;;;;18.10;10.77;;;;;;;3.19;100.00;100127.38;5096817;28;20293;-36
2021/01/08 11:47:41;;;;;;;16.50;10.83;;;;;;;3.13;100.00;100123.84;5096891;28;20523;-38
2021/01/08 11:50:27;;;;;;;15.57;10.70;;;;;;;3.13;100.00;100131.50;5097555;28;20280;-40
2021/01/08 11:53:13;;;;;;;16.70;10.07;;;;;;;3.29;100.00;100129.25;5098051;28;20662;-38
2021/01/08 11:56:02;;;;;;;18.60;12.00;;;;;;;3.11;100.00;100131.47;5097972;28;20220;-37
2021/01/08 11:58:49;;;;;;;21.87;12.30;;;;;;;3.00;100.00;100135.50;5097252;28;20287;-39
2021/01/08 12:01:36;;;;;;;18.23;11.20;;;;;;;3.24;100.00;100137.66;5097678;28;20299;-36
2021/01/08 12:04:23;;;;;;;17.13;11.43;;;;;;;2.91;100.00;100136.19;5104539;28;20218;-36
2021/01/08 12:07:11;;;;;;;17.47;10.93;;;;;;;2.95;100.00;100138.00;5117623;28;20298;-33
2021/01/08 12:10:05;;;;;;;14.07;9.53;;;;;;;2.91;100.00;100136.19;5118099;28;20662;-40
2021/01/08 12:13:00;;;;;;;16.43;10.80;;;;;;;3.25;100.00;100137.69;5076682;28;20278;-47
2021/01/08 12:15:57;;;;;;;17.27;10.60;;;;;;;2.90;100.00;100141.28;5077191;28;20289;-40
2021/01/08 12:18:46;;;;;;;16.20;10.27;;;;;;;3.21;100.00;100142.72;5076276;28;20196;-40
2021/01/08 12:21:38;;;;;;;18.17;10.17;;;;;;;3.34;100.00;100137.88;5077237;28;20214;-41
2021/01/08 12:24:28;;;;;;;14.90;10.10;;;;;;;3.31;100.00;100145.50;5076801;28;20223;-41
2021/01/08 12:27:18;;;;;;;13.00;8.53;;;;;;;3.62;100.00;100143.47;5076548;28;20205;-37
2021/01/08 12:30:09;;;;;;;13.77;8.73;;;;;;;3.41;100.00;100141.38;5077471;28;20215;-42
2021/01/08 12:33:02;;;;;;;14.83;9.63;;;;;;;3.55;100.00;100146.78;5076692;28;20261;-41
2021/01/08 12:35:51;;;;;;;13.70;8.40;;;;;;;3.38;100.00;100159.25;5077321;28;20188;-39
2021/01/08 12:38:41;;;;;;;12.67;8.30;;;;;;;3.01;100.00;100157.66;5076647;28;20360;-39
2021/01/08 12:41:32;;;;;;;13.20;9.07;;;;;;;3.15;100.00;100165.63;5076220;28;20208;-41
2021/01/08 12:44:19;;;;;;;14.23;8.70;;;;;;;3.01;100.00;100168.75;5076344;28;20243;-37
2021/01/08 12:47:11;;;;;;;16.83;9.43;;;;;;;3.17;100.00;100166.53;5076159;28;20200;-41
2021/01/08 12:50:02;;;;;;;15.90;10.67;;;;;;;3.42;100.00;100150.78;5075259;28;20211;-38
2021/01/08 12:52:48;;;;;;;12.27;8.30;;;;;;;3.07;100.00;100155.25;5076365;28;20199;-37